North Battleford Airport
CYQW : now visible

Airfield :











YOU CAN JOIN US ON...

 
LOGIN :

Register | Disclaimer

   EN    FR    IT 

 









Legend :    VFR   Marginal VFR   IFR   Intensive IFR   Very Intensive IFR
Visi :
Ceiling :
>= 8 km
>= 3000ft
5 to 8 km
1000 to 3000 ft
1500m to 5 km
500 to 1000 ft
800 to 1500m
200 to 500 ft
< 800m
< 200 ft
Symbols :   Thunderstorms  Fog  Heavy snow  Heavy precipitations  Wind > 20 kt







- Airport Elevation : 1799 ft
- IATA code : YQW


CYQW - North Battleford

CURRENT METAR :
  • 162200Z AUTO 34005KT 330V070 9SM CLR 28/12 A2956 RMK SLP012 DENSITY ALT 4100FT

EXPIRED METARs :
  • 162100Z AUTO 32007KT 9SM CLR 28/09 A2958 RMK SLP018 DENSITY ALT 4000FT
  • 162000Z AUTO 31008KT 9SM CLR 27/12 A2959 RMK SLP021 DENSITY ALT 3900FT

TAF TAF CYQW
Valid from the 16 at 18:00 until the 17 at 06:00 UTC


161738Z 1618/1706 32006KT P6SM SCT250
FM170000 VRB03KT P6SM BKN250 RMK FCST BASED ON AUTO OBS. NXT FCST BY 170000Z
No reported NOTAMs for that airfield.



MET'MAP, your aeronautical weather chart ! - Copyright ORBIFLY December 2007 - Disclaimer

ORBIFLY MET'MAP TEAM :

Programming & Development : Alexandra Zaïnal
Concept & Development : Baudouin d'Aumeries
Co-Development & Prog : Marc-Olivier Méhu
Technical & hardware support : Manuel Goepfert

Contact : metmap@orbifly.com




SOURCES & CREDITS :

   NOAA       Earth
Advisory